createdAt,value
2023-05-14T00:01:52.566Z,101480.59
2023-05-14T00:04:21.571Z,101480.38
2023-05-14T00:06:50.459Z,101482.66
2023-05-14T00:09:25.000Z,101470.66
2023-05-14T00:11:55.427Z,101476.31
2023-05-14T00:14:24.286Z,101473.28
2023-05-14T00:16:53.190Z,101470.56
2023-05-14T00:19:22.330Z,101470.59
2023-05-14T00:21:51.749Z,101472.31
2023-05-14T00:24:20.901Z,101474.00
2023-05-14T00:26:50.263Z,101478.16
2023-05-14T00:29:20.805Z,101476.84
2023-05-14T00:31:49.820Z,101482.22
2023-05-14T00:34:19.205Z,101473.59
2023-05-14T00:36:48.502Z,101464.34
2023-05-14T00:39:17.830Z,101459.84
2023-05-14T00:41:46.519Z,101458.50
2023-05-14T00:44:18.439Z,101459.56
2023-05-14T00:46:48.885Z,101444.47
2023-05-14T00:49:19.819Z,101439.41
2023-05-14T00:51:48.640Z,101442.06
2023-05-14T00:54:19.706Z,101442.38
2023-05-14T00:56:49.574Z,101444.06
2023-05-14T00:59:18.450Z,101441.28
2023-05-14T01:01:49.154Z,101437.38
2023-05-14T01:04:18.306Z,101432.91
2023-05-14T01:06:57.204Z,101430.63
2023-05-14T01:09:34.769Z,101432.84
2023-05-14T01:12:13.390Z,101433.13
2023-05-14T01:14:46.797Z,101435.88
2023-05-14T01:17:20.868Z,101435.25
2023-05-14T01:19:52.367Z,101431.94
2023-05-14T01:22:23.036Z,101439.31
2023-05-14T01:24:51.876Z,101444.56
2023-05-14T01:27:39.358Z,101434.31
2023-05-14T01:30:15.393Z,101429.88
2023-05-14T01:32:46.461Z,101431.25
2023-05-14T01:35:16.025Z,101428.47
2023-05-14T01:37:47.975Z,101433.28
2023-05-14T01:40:17.193Z,101427.94
2023-05-14T01:42:46.974Z,101428.44
2023-05-14T01:45:16.441Z,101426.19
2023-05-14T01:47:45.799Z,101420.63
2023-05-14T01:50:14.645Z,101425.06
2023-05-14T01:52:45.173Z,101426.75
2023-05-14T01:55:14.012Z,101425.59
2023-05-14T01:57:43.161Z,101429.19
2023-05-14T02:00:15.299Z,101429.72
2023-05-14T02:02:44.509Z,101421.94
2023-05-14T02:05:14.123Z,101419.91
2023-05-14T02:07:42.946Z,101415.44
2023-05-14T02:10:14.166Z,101406.38
2023-05-14T02:12:43.116Z,101406.31
2023-05-14T02:15:12.825Z,101404.97
2023-05-14T02:17:43.453Z,101410.88
2023-05-14T02:20:14.843Z,101412.56
2023-05-14T02:22:46.098Z,101410.25
2023-05-14T02:25:17.106Z,101404.91
2023-05-14T02:27:46.301Z,101402.06
2023-05-14T02:30:18.220Z,101416.03
2023-05-14T02:32:47.277Z,101409.25
2023-05-14T02:35:16.653Z,101408.75
2023-05-14T02:37:46.181Z,101412.88
2023-05-14T02:40:17.941Z,101404.50
2023-05-14T02:42:47.982Z,101408.09
2023-05-14T02:45:17.179Z,101403.38
2023-05-14T02:47:46.121Z,101405.06
2023-05-14T02:50:15.104Z,101404.22
2023-05-14T02:52:43.964Z,101411.69
2023-05-14T02:55:13.222Z,101406.88
2023-05-14T02:57:43.680Z,101412.75
2023-05-14T03:00:13.949Z,101411.16
2023-05-14T03:02:45.210Z,101415.47
2023-05-14T03:05:15.692Z,101418.53
2023-05-14T03:07:47.834Z,101417.16
2023-05-14T03:10:16.734Z,101411.19
2023-05-14T03:12:47.485Z,101407.25
2023-05-14T03:15:16.614Z,101405.81
2023-05-14T03:17:45.370Z,101409.97
2023-05-14T03:20:15.287Z,101407.50
2023-05-14T03:22:44.636Z,101410.84
2023-05-14T03:25:15.924Z,101409.44
2023-05-14T03:27:46.242Z,101412.75
2023-05-14T03:30:15.796Z,101415.22
2023-05-14T03:32:44.740Z,101404.06
2023-05-14T03:35:13.743Z,101408.88
2023-05-14T03:37:45.052Z,101398.50
2023-05-14T03:40:14.607Z,101404.59
2023-05-14T03:42:43.618Z,101398.78
2023-05-14T03:45:16.485Z,101400.38
2023-05-14T03:47:48.510Z,101397.94
2023-05-14T03:50:18.413Z,101395.41
2023-05-14T03:52:47.274Z,101392.16
2023-05-14T03:55:18.970Z,101386.91
2023-05-14T03:57:47.829Z,101392.28
2023-05-14T04:00:18.774Z,101389.50
2023-05-14T04:02:48.072Z,101390.59
2023-05-14T04:05:17.183Z,101391.03
2023-05-14T04:07:46.541Z,101385.53
2023-05-14T04:10:15.923Z,101387.19
2023-05-14T04:12:44.815Z,101390.59
2023-05-14T04:15:13.993Z,101388.38
2023-05-14T04:17:44.201Z,101387.81
2023-05-14T04:20:13.254Z,101389.81
2023-05-14T04:22:42.426Z,101392.72
2023-05-14T04:25:12.496Z,101390.44
2023-05-14T04:27:41.329Z,101376.81
2023-05-14T04:30:12.651Z,101383.84
2023-05-14T04:32:41.590Z,101387.13
2023-05-14T04:35:14.059Z,101390.84
2023-05-14T04:37:43.430Z,101383.59
2023-05-14T04:40:12.844Z,101381.13
2023-05-14T04:42:44.682Z,101378.44
2023-05-14T04:45:17.750Z,101376.56
2023-05-14T04:47:47.798Z,101389.41
2023-05-14T04:50:18.594Z,101390.78
2023-05-14T04:52:47.198Z,101388.38
2023-05-14T04:55:16.429Z,101384.31
2023-05-14T04:57:45.381Z,101386.56
2023-05-14T05:00:17.917Z,101391.13
2023-05-14T05:02:46.931Z,101383.47
2023-05-14T05:05:17.893Z,101395.78
2023-05-14T05:07:46.628Z,101393.69
2023-05-14T05:10:15.493Z,101393.16
2023-05-14T05:12:44.624Z,101392.84
2023-05-14T05:15:13.799Z,101389.44
2023-05-14T05:17:43.531Z,101393.78
2023-05-14T05:20:13.960Z,101382.38
2023-05-14T05:22:44.326Z,101389.38
2023-05-14T05:25:13.416Z,101386.25
2023-05-14T05:27:42.280Z,101393.53
2023-05-14T05:30:12.205Z,101394.66
2023-05-14T05:32:41.217Z,101386.56
2023-05-14T05:35:10.814Z,101390.13
2023-05-14T05:37:39.653Z,101395.19
2023-05-14T05:40:17.900Z,101394.53
2023-05-14T05:42:46.662Z,101392.41
2023-05-14T05:45:15.501Z,101386.31
2023-05-14T05:47:44.413Z,101398.66
2023-05-14T05:50:13.660Z,101396.66
2023-05-14T05:52:42.388Z,101396.06
2023-05-14T05:55:12.496Z,101390.91
2023-05-14T05:57:41.429Z,101393.28
2023-05-14T06:00:14.360Z,101401.56
2023-05-14T06:02:43.567Z,101387.44
2023-05-14T06:05:12.884Z,101395.53
2023-05-14T06:07:41.990Z,101401.63
2023-05-14T06:10:13.103Z,101402.75
2023-05-14T06:12:42.118Z,101402.44
2023-05-14T06:15:12.568Z,101403.13
2023-05-14T06:17:41.938Z,101390.59
2023-05-14T06:20:14.280Z,101405.16
2023-05-14T06:22:43.361Z,101403.53
2023-05-14T06:25:14.277Z,101407.22
2023-05-14T06:27:46.387Z,101413.38
2023-05-14T06:30:18.970Z,101406.91
2023-05-14T06:32:47.907Z,101408.41
2023-05-14T06:35:16.517Z,101410.16
2023-05-14T06:37:44.918Z,101417.66
2023-05-14T06:40:17.095Z,101415.91
2023-05-14T06:42:45.981Z,101413.69
2023-05-14T06:45:14.624Z,101412.47
2023-05-14T06:47:43.245Z,101417.88
2023-05-14T06:50:13.961Z,101400.84
2023-05-14T06:52:43.837Z,101397.38
2023-05-14T06:55:12.435Z,101407.28
2023-05-14T06:57:42.348Z,101394.88
2023-05-14T07:00:12.754Z,101399.47
2023-05-14T07:02:41.811Z,101396.97
2023-05-14T07:05:12.377Z,101395.94
2023-05-14T07:07:41.726Z,101393.94
2023-05-14T07:10:10.538Z,101398.22
2023-05-14T07:12:39.564Z,101394.56
2023-05-14T07:15:12.345Z,101399.22
2023-05-14T07:17:41.280Z,101394.75
2023-05-14T07:20:11.909Z,101401.75
2023-05-14T07:22:40.349Z,101402.41
2023-05-14T07:25:09.961Z,101394.19
2023-05-14T07:27:39.004Z,101393.13
2023-05-14T07:30:10.984Z,101397.22
2023-05-14T07:32:39.666Z,101387.75
2023-05-14T07:35:09.888Z,101388.44
2023-05-14T07:37:39.229Z,101391.91
2023-05-14T07:40:14.072Z,101394.28
2023-05-14T07:42:42.899Z,101392.72
2023-05-14T07:45:14.650Z,101389.31
2023-05-14T07:47:44.218Z,101382.50
2023-05-14T07:50:14.012Z,101382.69
2023-05-14T07:52:43.906Z,101387.44
2023-05-14T07:55:14.652Z,101382.53
2023-05-14T07:57:43.400Z,101387.34
2023-05-14T08:00:17.196Z,101382.97
2023-05-14T08:02:46.353Z,101382.03
2023-05-14T08:05:15.770Z,101386.22
2023-05-14T08:07:45.077Z,101379.53
2023-05-14T08:10:14.079Z,101384.25
2023-05-14T08:12:42.937Z,101373.91
2023-05-14T08:15:14.332Z,101378.16
2023-05-14T08:17:43.330Z,101376.41
2023-05-14T08:20:13.712Z,101375.88
2023-05-14T08:22:42.442Z,101385.00
2023-05-14T08:25:13.187Z,101370.25
2023-05-14T08:27:42.212Z,101381.28
2023-05-14T08:30:14.115Z,101377.97
2023-05-14T08:32:46.421Z,101377.06
2023-05-14T08:35:15.388Z,101374.72
2023-05-14T08:37:44.585Z,101379.63
2023-05-14T08:40:14.339Z,101369.72
2023-05-14T08:42:47.498Z,101371.41
2023-05-14T08:45:22.054Z,101368.66
2023-05-14T08:47:52.997Z,101364.91
2023-05-14T08:50:23.782Z,101361.66
2023-05-14T08:52:55.073Z,101350.84
2023-05-14T08:55:26.091Z,101350.53
2023-05-14T08:57:54.894Z,101350.25
2023-05-14T09:00:28.482Z,101356.41
2023-05-14T09:02:57.835Z,101354.03
2023-05-14T09:05:27.185Z,101347.00
2023-05-14T09:07:55.723Z,101345.03
2023-05-14T09:10:25.504Z,101346.41
2023-05-14T09:12:54.705Z,101333.91
2023-05-14T09:15:29.905Z,101337.13
2023-05-14T09:17:59.658Z,101341.69
2023-05-14T09:20:29.090Z,101330.53
2023-05-14T09:22:57.981Z,101336.09
2023-05-14T09:25:28.896Z,101330.91
2023-05-14T09:27:59.214Z,101326.44
2023-05-14T09:30:29.256Z,101332.06
2023-05-14T09:32:59.335Z,101339.94
2023-05-14T09:35:27.951Z,101333.66
2023-05-14T09:37:57.567Z,101326.19
2023-05-14T09:40:26.862Z,101320.50
2023-05-14T09:42:56.339Z,101326.09
2023-05-14T09:45:25.699Z,101327.69
2023-05-14T09:47:57.387Z,101321.28
2023-05-14T09:50:26.667Z,101318.69
2023-05-14T09:52:57.054Z,101317.78
2023-05-14T09:55:27.777Z,101320.25
2023-05-14T09:57:57.750Z,101313.31
2023-05-14T10:00:29.731Z,101313.03
2023-05-14T10:03:00.545Z,101305.25
2023-05-14T10:05:30.318Z,101303.09
2023-05-14T10:08:02.268Z,101305.41
2023-05-14T10:10:31.919Z,101300.19
2023-05-14T10:13:07.448Z,101299.13
2023-05-14T10:15:44.569Z,101298.00
2023-05-14T10:18:24.299Z,101303.78
2023-05-14T10:21:05.421Z,101305.63
2023-05-14T10:23:34.125Z,101291.66
2023-05-14T10:26:04.320Z,101289.16
2023-05-14T10:28:33.989Z,101290.03
2023-05-14T10:31:03.188Z,101293.66
2023-05-14T10:33:51.128Z,101291.00
2023-05-14T10:36:23.508Z,101283.28
2023-05-14T10:38:58.799Z,101282.06
2023-05-14T10:41:28.247Z,101286.81
2023-05-14T10:44:00.893Z,101285.22
2023-05-14T10:46:30.278Z,101269.53
2023-05-14T10:49:01.028Z,101276.78
2023-05-14T10:51:30.211Z,101271.63
2023-05-14T10:54:01.942Z,101273.22
2023-05-14T10:56:30.830Z,101278.56
2023-05-14T10:59:01.721Z,101267.84
2023-05-14T11:01:30.642Z,101258.88
2023-05-14T11:04:00.582Z,101259.06
2023-05-14T11:06:29.871Z,101257.34
2023-05-14T11:09:02.638Z,101256.06
2023-05-14T11:11:35.168Z,101252.34
2023-05-14T11:14:04.275Z,101259.03
2023-05-14T11:16:33.878Z,101247.84
2023-05-14T11:19:07.427Z,101248.13
2023-05-14T11:21:37.700Z,101255.09
2023-05-14T11:24:09.116Z,101238.91
2023-05-14T11:26:37.667Z,101244.91
2023-05-14T11:29:07.176Z,101241.03
2023-05-14T11:31:36.707Z,101232.88
2023-05-14T11:34:10.235Z,101229.06
2023-05-14T11:36:39.269Z,101237.38
2023-05-14T11:39:08.434Z,101228.25
2023-05-14T11:41:37.107Z,101221.88
2023-05-14T11:44:09.510Z,101233.72
2023-05-14T11:46:38.785Z,101230.03
2023-05-14T11:49:09.166Z,101225.44
2023-05-14T11:51:38.490Z,101218.84
2023-05-14T11:54:07.566Z,101215.94
2023-05-14T11:56:36.695Z,101215.88
2023-05-14T11:59:06.004Z,101207.47
2023-05-14T12:01:38.255Z,101208.16
2023-05-14T12:04:09.573Z,101218.25
2023-05-14T12:06:43.414Z,101203.81
2023-05-14T12:09:17.824Z,101206.25
2023-05-14T12:11:47.250Z,101203.56
2023-05-14T12:14:21.582Z,101201.28
2023-05-14T12:16:51.744Z,101203.38
2023-05-14T12:19:23.443Z,101203.09
2023-05-14T12:21:53.688Z,101199.75
2023-05-14T12:24:22.340Z,101192.91
2023-05-14T12:26:52.798Z,101190.47
2023-05-14T12:29:22.127Z,101190.63
2023-05-14T12:31:51.630Z,101185.44
2023-05-14T12:34:20.144Z,101179.47
2023-05-14T12:36:53.212Z,101188.22
2023-05-14T12:39:24.023Z,101193.66
2023-05-14T12:41:53.256Z,101185.59
2023-05-14T12:44:22.610Z,101176.13
2023-05-14T12:46:55.372Z,101184.47
2023-05-14T12:49:26.211Z,101177.38
2023-05-14T12:52:07.848Z,101164.50
2023-05-14T12:54:45.564Z,101169.97
2023-05-14T12:57:14.673Z,101158.50
2023-05-14T12:59:44.615Z,101158.84
2023-05-14T13:02:13.617Z,101158.19
2023-05-14T13:04:43.808Z,101154.13
2023-05-14T13:07:13.035Z,101151.56
2023-05-14T13:09:41.580Z,101154.44
2023-05-14T13:12:12.234Z,101157.47
2023-05-14T13:14:41.088Z,101157.66
2023-05-14T13:17:10.080Z,101163.09
2023-05-14T13:19:39.170Z,101146.81
2023-05-14T13:22:07.931Z,101154.72
2023-05-14T13:24:37.174Z,101151.56
2023-05-14T13:27:06.905Z,101149.78
2023-05-14T13:29:36.768Z,101142.97
2023-05-14T13:32:08.913Z,101147.25
2023-05-14T13:34:37.347Z,101135.25
2023-05-14T13:37:06.379Z,101133.00
2023-05-14T13:39:34.702Z,101134.41
2023-05-14T13:42:05.769Z,101126.41
2023-05-14T13:44:36.485Z,101131.75
2023-05-14T13:47:07.305Z,101123.59
2023-05-14T13:49:35.835Z,101123.72
2023-05-14T13:52:04.479Z,101125.63
2023-05-14T13:54:33.534Z,101116.88
2023-05-14T13:57:02.206Z,101119.28
2023-05-14T13:59:31.165Z,101116.75
2023-05-14T14:02:01.105Z,101116.19
2023-05-14T14:04:31.687Z,101107.69
2023-05-14T14:07:00.968Z,101119.03
2023-05-14T14:09:29.411Z,101109.38
2023-05-14T14:11:58.301Z,101107.16
2023-05-14T14:14:26.711Z,101100.72
2023-05-14T14:16:55.746Z,101104.28
2023-05-14T14:19:26.486Z,101101.69
2023-05-14T14:21:56.579Z,101096.88
2023-05-14T14:24:26.136Z,101090.91
2023-05-14T14:26:54.956Z,101088.94
2023-05-14T14:29:23.985Z,101088.38
2023-05-14T14:31:54.715Z,101089.59
2023-05-14T14:34:23.485Z,101083.13
2023-05-14T14:36:52.857Z,101083.28
2023-05-14T14:39:25.776Z,101075.59
2023-05-14T14:41:58.682Z,101081.50
2023-05-14T14:44:27.822Z,101070.63
2023-05-14T14:46:57.369Z,101078.28
2023-05-14T14:49:26.708Z,101066.06
2023-05-14T14:51:56.625Z,101065.16
2023-05-14T14:54:27.067Z,101069.34
2023-05-14T14:56:55.776Z,101067.50
2023-05-14T14:59:24.710Z,101074.81
2023-05-14T15:01:53.776Z,101070.63
2023-05-14T15:04:22.263Z,101071.63
2023-05-14T15:06:51.011Z,101067.50
2023-05-14T15:09:19.856Z,101072.88
2023-05-14T15:11:53.265Z,101078.75
2023-05-14T15:14:22.287Z,101076.44
2023-05-14T15:16:51.262Z,101065.19
2023-05-14T15:19:20.252Z,101070.47
2023-05-14T15:21:51.313Z,101066.94
2023-05-14T15:24:20.288Z,101058.84
2023-05-14T15:26:52.078Z,101053.66
2023-05-14T15:29:22.491Z,101055.69
2023-05-14T15:31:52.943Z,101060.31
2023-05-14T15:34:22.777Z,101059.06
2023-05-14T15:36:51.531Z,101066.50
2023-05-14T15:39:20.258Z,101057.47
2023-05-14T15:41:50.627Z,101056.13
2023-05-14T15:44:19.211Z,101056.22
2023-05-14T15:46:47.951Z,101060.41
2023-05-14T15:49:16.882Z,101058.53
2023-05-14T15:51:45.646Z,101049.56
2023-05-14T15:54:14.771Z,101051.81
2023-05-14T15:56:43.490Z,101047.47
2023-05-14T15:59:14.984Z,101048.84
2023-05-14T16:01:43.522Z,101049.25
2023-05-14T16:04:12.199Z,101044.50
2023-05-14T16:06:42.014Z,101053.81
2023-05-14T16:09:10.659Z,101045.84
2023-05-14T16:11:40.623Z,101049.00
2023-05-14T16:14:08.967Z,101058.31
2023-05-14T16:16:41.816Z,101057.56
2023-05-14T16:19:11.105Z,101058.53
2023-05-14T16:21:40.186Z,101051.78
2023-05-14T16:24:12.955Z,101061.44
2023-05-14T16:26:41.836Z,101051.50
2023-05-14T16:29:10.770Z,101052.31
2023-05-14T16:31:40.861Z,101055.50
2023-05-14T16:34:09.809Z,101053.75
2023-05-14T16:36:41.364Z,101051.03
2023-05-14T16:39:13.641Z,101045.47
2023-05-14T16:41:43.572Z,101038.69
2023-05-14T16:44:12.217Z,101049.56
2023-05-14T16:46:42.455Z,101035.16
2023-05-14T16:49:11.224Z,101033.78
2023-05-14T16:51:43.156Z,101043.97
2023-05-14T16:54:11.920Z,101041.75
2023-05-14T16:56:40.475Z,101043.88
2023-05-14T16:59:08.923Z,101042.28
2023-05-14T17:01:43.633Z,101044.75
2023-05-14T17:04:12.324Z,101046.53
2023-05-14T17:06:41.375Z,101043.66
2023-05-14T17:09:09.963Z,101041.34
2023-05-14T17:11:38.794Z,101044.81
2023-05-14T17:14:08.040Z,101056.09
2023-05-14T17:16:39.268Z,101035.47
2023-05-14T17:19:09.255Z,101050.38
2023-05-14T17:21:39.225Z,101047.78
2023-05-14T17:24:08.724Z,101047.06
2023-05-14T17:26:39.327Z,101050.13
2023-05-14T17:29:10.943Z,101052.56
2023-05-14T17:31:39.882Z,101065.63
2023-05-14T17:34:09.918Z,101047.81
2023-05-14T17:36:38.560Z,101049.47
2023-05-14T17:39:07.207Z,101054.38
2023-05-14T17:41:37.191Z,101049.22
2023-05-14T17:44:08.421Z,101050.03
2023-05-14T17:46:38.125Z,101059.38
2023-05-14T17:49:07.467Z,101056.16
2023-05-14T17:51:37.640Z,101066.34
2023-05-14T17:54:07.138Z,101057.59
2023-05-14T17:56:38.260Z,101063.72
2023-05-14T17:59:07.161Z,101060.56
2023-05-14T18:01:35.935Z,101058.00
2023-05-14T18:04:04.388Z,101055.28
2023-05-14T18:06:33.204Z,101061.56
2023-05-14T18:09:04.728Z,101064.50
2023-05-14T18:11:34.205Z,101068.34
2023-05-14T18:14:03.087Z,101062.31
2023-05-14T18:16:32.070Z,101058.63
2023-05-14T18:19:01.654Z,101063.84
2023-05-14T18:21:30.381Z,101066.56
2023-05-14T18:23:59.482Z,101065.19
2023-05-14T18:26:32.180Z,101068.63
2023-05-14T18:29:02.752Z,101069.69
2023-05-14T18:31:31.835Z,101079.22
2023-05-14T18:34:00.552Z,101070.66
2023-05-14T18:36:29.259Z,101071.66
2023-05-14T18:38:58.029Z,101068.47
2023-05-14T18:41:28.818Z,101065.78
2023-05-14T18:43:58.195Z,101065.84
2023-05-14T18:46:27.993Z,101070.88
2023-05-14T18:48:57.823Z,101074.09
2023-05-14T18:51:26.603Z,101067.47
2023-05-14T18:53:55.653Z,101080.91
2023-05-14T18:56:25.676Z,101078.09
2023-05-14T18:58:55.915Z,101077.81
2023-05-14T19:01:25.749Z,101078.38
2023-05-14T19:04:01.316Z,101073.91
2023-05-14T19:06:32.545Z,101079.53
2023-05-14T19:09:01.653Z,101073.94
2023-05-14T19:11:33.837Z,101080.78
2023-05-14T19:14:06.323Z,101079.25
2023-05-14T19:16:35.252Z,101077.84
2023-05-14T19:19:05.508Z,101081.44
2023-05-14T19:21:36.523Z,101081.50
2023-05-14T19:24:05.910Z,101079.31
2023-05-14T19:26:34.593Z,101076.44
2023-05-14T19:29:04.456Z,101079.53
2023-05-14T19:31:33.332Z,101082.88
2023-05-14T19:34:04.591Z,101085.19
2023-05-14T19:36:35.690Z,101085.13
2023-05-14T19:39:04.797Z,101084.97
2023-05-14T19:41:36.261Z,101089.75
2023-05-14T19:44:06.938Z,101085.28
2023-05-14T19:46:36.131Z,101091.63
2023-05-14T19:49:08.739Z,101092.53
2023-05-14T19:51:49.228Z,101089.72
2023-05-14T19:54:21.898Z,101090.53
2023-05-14T19:56:56.084Z,101086.59
2023-05-14T19:59:29.870Z,101093.94
2023-05-14T20:01:58.487Z,101093.56
2023-05-14T20:04:27.328Z,101090.78
2023-05-14T20:09:59.259Z,101094.50
2023-05-14T20:12:28.056Z,101093.47
2023-05-14T20:15:00.510Z,101098.56
2023-05-14T20:17:31.101Z,101091.16
2023-05-14T20:20:00.225Z,101098.34
2023-05-14T20:22:29.299Z,101100.19
2023-05-14T20:24:57.715Z,101096.63
2023-05-14T20:27:27.754Z,101090.66
2023-05-14T20:29:57.662Z,101092.56
2023-05-14T20:32:26.804Z,101084.97
2023-05-14T20:34:55.471Z,101086.13
2023-05-14T20:37:25.582Z,101096.44
2023-05-14T20:39:54.442Z,101089.75
2023-05-14T20:42:23.606Z,101091.47
2023-05-14T20:44:53.673Z,101085.91
2023-05-14T20:47:29.363Z,101083.94
2023-05-14T20:49:58.635Z,101081.72
2023-05-14T20:52:27.550Z,101086.22
2023-05-14T20:54:58.791Z,101081.72
2023-05-14T20:57:30.636Z,101079.22
2023-05-14T21:00:00.427Z,101083.47
2023-05-14T21:02:30.750Z,101083.34
2023-05-14T21:04:59.345Z,101081.06
2023-05-14T21:07:28.877Z,101072.69
2023-05-14T21:09:57.745Z,101077.78
2023-05-14T21:12:26.272Z,101076.22
2023-05-14T21:14:55.606Z,101077.75
2023-05-14T21:17:34.673Z,101081.94
2023-05-14T21:20:07.481Z,101071.09
2023-05-14T21:22:37.427Z,101086.72
2023-05-14T21:25:07.225Z,101077.66
2023-05-14T21:27:37.525Z,101077.78
2023-05-14T21:30:08.889Z,101073.63
2023-05-14T21:32:39.014Z,101075.94
2023-05-14T21:35:11.801Z,101063.97
2023-05-14T21:37:40.976Z,101070.38
2023-05-14T21:40:12.418Z,101062.25
2023-05-14T21:42:41.422Z,101064.22
2023-05-14T21:45:11.595Z,101067.00
2023-05-14T21:47:41.881Z,101072.47
2023-05-14T21:50:13.963Z,101067.25
2023-05-14T21:52:42.707Z,101055.53
2023-05-14T21:55:11.863Z,101063.56
2023-05-14T21:57:40.689Z,101067.56
2023-05-14T22:00:13.312Z,101063.28
2023-05-14T22:02:41.948Z,101067.50
2023-05-14T22:05:12.493Z,101066.44
2023-05-14T22:07:42.007Z,101072.25
2023-05-14T22:10:12.438Z,101073.09
2023-05-14T22:12:45.126Z,101064.94
2023-05-14T22:15:15.133Z,101061.16
2023-05-14T22:17:43.815Z,101067.94
2023-05-14T22:20:14.746Z,101062.88
2023-05-14T22:22:45.651Z,101061.13
2023-05-14T22:25:14.591Z,101061.09
2023-05-14T22:27:44.332Z,101051.34
2023-05-14T22:30:15.813Z,101059.16
2023-05-14T22:32:45.895Z,101055.81
2023-05-14T22:35:16.305Z,101051.56
2023-05-14T22:37:45.093Z,101053.75
2023-05-14T22:40:16.484Z,101054.97
2023-05-14T22:42:45.584Z,101052.69
2023-05-14T22:45:15.189Z,101050.41
2023-05-14T22:47:43.968Z,101049.66
2023-05-14T22:50:12.753Z,101045.69
2023-05-14T22:52:43.110Z,101035.16
2023-05-14T22:55:11.918Z,101039.34
2023-05-14T22:57:41.016Z,101039.28
2023-05-14T23:00:11.382Z,101039.81
2023-05-14T23:02:40.498Z,101037.88
2023-05-14T23:05:10.697Z,101028.94
2023-05-14T23:07:39.734Z,101028.47
2023-05-14T23:10:12.818Z,101033.13
2023-05-14T23:12:41.871Z,101032.53
2023-05-14T23:15:11.882Z,101030.97
2023-05-14T23:17:41.515Z,101030.94
2023-05-14T23:20:12.827Z,101026.69
2023-05-14T23:22:42.639Z,101027.88
2023-05-14T23:25:13.274Z,101025.66
2023-05-14T23:27:44.718Z,101026.91
2023-05-14T23:30:14.629Z,101026.81
2023-05-14T23:32:43.374Z,101023.34
2023-05-14T23:35:12.257Z,101021.38
2023-05-14T23:37:47.538Z,101021.66
2023-05-14T23:40:18.604Z,101022.56
2023-05-14T23:42:48.008Z,101015.66
2023-05-14T23:45:17.017Z,101018.50
2023-05-14T23:47:46.389Z,101012.25
2023-05-14T23:50:15.125Z,101010.84
2023-05-14T23:52:43.881Z,101013.34
2023-05-14T23:55:13.435Z,101011.66
2023-05-14T23:57:47.142Z,101004.34
